Time;durP1;ratioP1;P1;durP2;ratioP2;P2;SDS_P1;SDS_P2;PMS_P1;PMS_P2;Temp;Humidity;BMP_temperature;BMP_pressure;BME280_temperature;BME280_humidity;BME280_pressure;Samples;Min_cycle;Max_cycle;Signal;HPM_P1;HPM_P2
2022/03/29 00:01:33;;;;;;;43.42;16.05;;;;;;;;;;6258718;28;20056;-65
2022/03/29 00:04:34;;;;;;;44.90;16.50;;;;;;;;;;6259780;28;20137;-65
2022/03/29 00:07:34;;;;;;;42.38;16.83;;;;;;;;;;6260372;28;20067;-64
2022/03/29 00:10:35;;;;;;;45.90;17.77;;;;;;;;;;6258724;28;20048;-66
2022/03/29 00:13:36;;;;;;;43.85;17.80;;;;;;;;;;6258385;28;20045;-66
2022/03/29 00:16:37;;;;;;;39.88;18.52;;;;;;;;;;6258527;28;20053;-65
2022/03/29 00:19:37;;;;;;;42.08;17.15;;;;;;;;;;6260669;28;20038;-65
2022/03/29 00:22:38;;;;;;;44.25;18.90;;;;;;;;;;6258551;28;20045;-64
2022/03/29 00:25:38;;;;;;;39.38;16.55;;;;;;;;;;6263175;28;20072;-66
2022/03/29 00:28:39;;;;;;;39.38;17.65;;;;;;;;;;6261916;28;20047;-66
2022/03/29 00:31:40;;;;;;;40.35;16.92;;;;;;;;;;6259333;28;20051;-67
2022/03/29 00:34:42;;;;;;;42.50;17.65;;;;;;;;;;6259377;28;20460;-67
2022/03/29 00:37:43;;;;;;;43.53;18.40;;;;;;;;;;6259506;28;20844;-68
2022/03/29 00:40:44;;;;;;;49.97;18.95;;;;;;;;;;6260879;28;20052;-63
2022/03/29 00:43:45;;;;;;;44.55;20.15;;;;;;;;;;6258472;28;20052;-66
2022/03/29 00:46:47;;;;;;;55.30;22.98;;;;;;;;;;6259645;28;20060;-66
2022/03/29 00:49:48;;;;;;;51.53;22.20;;;;;;;;;;6258670;28;20072;-66
2022/03/29 00:52:48;;;;;;;59.67;22.10;;;;;;;;;;6261029;28;20072;-65
2022/03/29 00:55:50;;;;;;;55.78;23.38;;;;;;;;;;6261025;28;20045;-64
2022/03/29 00:58:51;;;;;;;56.80;23.48;;;;;;;;;;6260425;28;20041;-67
2022/03/29 01:01:52;;;;;;;54.30;22.50;;;;;;;;;;6257698;28;20140;-65
2022/03/29 01:04:52;;;;;;;54.75;21.73;;;;;;;;;;6266179;28;20094;-66
2022/03/29 01:07:55;;;;;;;57.30;23.88;;;;;;;;;;6265219;28;20120;-63
2022/03/29 01:10:56;;;;;;;54.78;23.17;;;;;;;;;;6266988;28;20425;-66
2022/03/29 01:13:56;;;;;;;61.53;24.75;;;;;;;;;;6261483;28;20137;-66
2022/03/29 01:20:17;;;;;;;59.90;24.13;;;;;;;;;;6258806;28;20049;-61
2022/03/29 01:23:18;;;;;;;58.60;24.42;;;;;;;;;;6258914;28;20076;-66
2022/03/29 01:26:20;;;;;;;58.75;23.35;;;;;;;;;;6259606;28;20542;-66
2022/03/29 01:29:21;;;;;;;54.63;22.48;;;;;;;;;;6257761;28;20083;-66
2022/03/29 01:32:23;;;;;;;59.47;23.55;;;;;;;;;;6256754;28;20377;-66
2022/03/29 01:35:24;;;;;;;62.47;23.30;;;;;;;;;;6258774;28;20076;-66
2022/03/29 01:38:25;;;;;;;58.75;23.27;;;;;;;;;;6256602;28;20057;-66
2022/03/29 01:41:30;;;;;;;63.10;23.95;;;;;;;;;;6257395;28;20408;-66
2022/03/29 01:44:31;;;;;;;60.50;26.33;;;;;;;;;;6259092;28;20051;-66
2022/03/29 01:47:32;;;;;;;55.63;25.27;;;;;;;;;;6256775;28;20061;-65
2022/03/29 01:50:33;;;;;;;56.20;24.17;;;;;;;;;;6254999;28;20049;-65
2022/03/29 01:53:33;;;;;;;58.42;26.13;;;;;;;;;;6260534;28;20048;-64
2022/03/29 01:56:34;;;;;;;56.97;23.60;;;;;;;;;;6259370;28;20124;-64
2022/03/29 02:02:58;;;;;;;59.88;25.70;;;;;;;;;;6256595;28;20428;-62
2022/03/29 02:05:59;;;;;;;53.42;22.95;;;;;;;;;;6256147;28;20132;-65
2022/03/29 02:09:00;;;;;;;57.30;23.88;;;;;;;;;;6259605;28;20153;-63
2022/03/29 02:12:02;;;;;;;57.40;24.93;;;;;;;;;;6265513;28;20094;-63
2022/03/29 02:15:03;;;;;;;67.23;26.37;;;;;;;;;;6264413;28;20045;-61
2022/03/29 02:18:05;;;;;;;70.10;27.33;;;;;;;;;;6261847;28;20297;-61
2022/03/29 02:21:05;;;;;;;87.93;31.58;;;;;;;;;;6264152;28;20310;-63
2022/03/29 02:24:06;;;;;;;79.00;29.50;;;;;;;;;;6262579;28;20111;-63
2022/03/29 02:27:06;;;;;;;142.25;48.60;;;;;;;;;;6261107;28;20050;-63
2022/03/29 02:30:09;;;;;;;86.32;31.05;;;;;;;;;;6262641;28;20045;-62
2022/03/29 02:33:09;;;;;;;59.78;25.00;;;;;;;;;;6261993;28;20052;-61
2022/03/29 02:36:12;;;;;;;61.70;26.35;;;;;;;;;;6262471;28;20471;-62
2022/03/29 02:39:13;;;;;;;65.38;27.67;;;;;;;;;;6262638;28;20140;-60
2022/03/29 02:42:14;;;;;;;70.40;27.27;;;;;;;;;;6263145;28;20126;-65
2022/03/29 02:45:16;;;;;;;61.70;26.38;;;;;;;;;;6258566;28;20124;-61
2022/03/29 02:48:17;;;;;;;61.40;27.15;;;;;;;;;;6264003;28;20134;-63
2022/03/29 02:51:17;;;;;;;67.13;27.75;;;;;;;;;;6262467;28;20109;-63
2022/03/29 02:54:19;;;;;;;59.92;27.50;;;;;;;;;;6259815;28;20786;-62
2022/03/29 02:57:19;;;;;;;59.10;27.43;;;;;;;;;;6261374;28;20045;-64
2022/03/29 03:00:21;;;;;;;65.43;29.27;;;;;;;;;;6260078;28;20056;-63
2022/03/29 03:03:22;;;;;;;62.55;29.38;;;;;;;;;;6261157;28;20049;-62
2022/03/29 03:06:24;;;;;;;66.13;29.20;;;;;;;;;;6263419;28;20472;-61
2022/03/29 03:09:25;;;;;;;68.45;29.90;;;;;;;;;;6262101;28;20049;-60
2022/03/29 03:12:25;;;;;;;61.75;27.33;;;;;;;;;;6260359;28;20540;-61
2022/03/29 03:15:26;;;;;;;57.35;26.67;;;;;;;;;;6262532;28;20084;-61
2022/03/29 03:18:27;;;;;;;65.10;27.05;;;;;;;;;;6262454;28;20132;-62
2022/03/29 03:21:27;;;;;;;68.80;31.70;;;;;;;;;;6261226;28;20668;-61
2022/03/29 03:24:28;;;;;;;75.30;31.98;;;;;;;;;;6260165;28;20549;-63
2022/03/29 03:27:29;;;;;;;75.50;34.22;;;;;;;;;;6261098;28;20087;-63
2022/03/29 03:30:30;;;;;;;73.65;33.03;;;;;;;;;;6260853;28;20087;-64
2022/03/29 03:33:30;;;;;;;75.22;32.45;;;;;;;;;;6263283;28;20441;-63
2022/03/29 03:36:31;;;;;;;72.05;30.88;;;;;;;;;;6262829;28;20059;-64
2022/03/29 03:39:34;;;;;;;74.53;32.38;;;;;;;;;;6265082;28;20502;-63
2022/03/29 03:42:35;;;;;;;74.55;31.38;;;;;;;;;;6257896;28;20118;-63
2022/03/29 03:45:36;;;;;;;69.20;30.58;;;;;;;;;;6257716;28;20040;-62
2022/03/29 03:48:37;;;;;;;71.20;32.35;;;;;;;;;;6264802;28;20170;-61
2022/03/29 03:51:37;;;;;;;71.22;30.80;;;;;;;;;;6262590;28;20055;-67
2022/03/29 03:54:38;;;;;;;69.97;31.63;;;;;;;;;;6259096;28;20103;-67
2022/03/29 03:57:39;;;;;;;75.10;33.90;;;;;;;;;;6265934;28;20528;-65
2022/03/29 04:00:40;;;;;;;79.82;33.10;;;;;;;;;;6264612;28;20155;-64
2022/03/29 04:03:41;;;;;;;77.10;33.78;;;;;;;;;;6265778;28;20041;-64
2022/03/29 04:06:41;;;;;;;71.93;33.50;;;;;;;;;;6267700;28;20051;-66
2022/03/29 04:09:42;;;;;;;68.03;31.88;;;;;;;;;;6263248;28;20045;-62
2022/03/29 04:12:43;;;;;;;74.13;35.63;;;;;;;;;;6259474;28;20488;-62
2022/03/29 04:15:44;;;;;;;70.85;31.98;;;;;;;;;;6261043;28;20056;-67
2022/03/29 04:18:45;;;;;;;66.38;29.25;;;;;;;;;;6267639;28;20053;-67
2022/03/29 04:21:46;;;;;;;67.60;28.95;;;;;;;;;;6265117;28;20131;-63
2022/03/29 04:24:47;;;;;;;71.57;31.33;;;;;;;;;;6267775;28;20041;-62
2022/03/29 04:27:48;;;;;;;79.70;33.20;;;;;;;;;;6265867;28;20067;-61
2022/03/29 04:30:50;;;;;;;80.22;35.83;;;;;;;;;;6261028;28;20148;-66
2022/03/29 04:33:51;;;;;;;92.32;38.38;;;;;;;;;;6261958;28;20593;-66
2022/03/29 04:36:51;;;;;;;81.95;36.75;;;;;;;;;;6263783;28;20041;-64
2022/03/29 04:39:52;;;;;;;72.95;32.53;;;;;;;;;;6263914;28;20124;-63
2022/03/29 04:42:53;;;;;;;76.05;34.53;;;;;;;;;;6262977;28;20037;-62
2022/03/29 04:45:53;;;;;;;72.10;32.63;;;;;;;;;;6266368;28;20073;-61
2022/03/29 04:48:54;;;;;;;74.22;32.95;;;;;;;;;;6264296;28;20064;-62
2022/03/29 04:51:54;;;;;;;74.22;33.08;;;;;;;;;;6261822;28;20527;-60
2022/03/29 04:54:55;;;;;;;70.30;31.17;;;;;;;;;;6259565;28;20053;-64
2022/03/29 04:57:56;;;;;;;66.78;32.47;;;;;;;;;;6260880;28;20124;-65
2022/03/29 05:00:58;;;;;;;67.13;29.52;;;;;;;;;;6255566;28;20049;-62
2022/03/29 05:03:59;;;;;;;;;;;;;;;;;;6259828;28;20095;-64
2022/03/29 05:06:59;;;;;;;83.35;34.85;;;;;;;;;;6265431;28;20411;-66
2022/03/29 05:10:00;;;;;;;81.10;37.80;;;;;;;;;;6254275;28;20084;-65
2022/03/29 05:13:01;;;;;;;83.47;36.22;;;;;;;;;;6246440;28;20571;-61
2022/03/29 05:16:02;;;;;;;73.85;34.30;;;;;;;;;;6256784;28;20134;-60
2022/03/29 05:19:03;;;;;;;75.43;34.28;;;;;;;;;;6260007;28;20052;-62
2022/03/29 05:22:04;;;;;;;78.78;35.28;;;;;;;;;;6264175;28;20143;-64
2022/03/29 05:25:05;;;;;;;77.97;36.37;;;;;;;;;;6260925;28;20490;-61
2022/03/29 05:28:06;;;;;;;80.75;36.58;;;;;;;;;;6263519;28;20045;-62
2022/03/29 05:31:07;;;;;;;83.70;36.35;;;;;;;;;;6257972;28;20079;-60
2022/03/29 05:34:07;;;;;;;78.60;35.67;;;;;;;;;;6260857;28;20110;-63
2022/03/29 05:37:08;;;;;;;81.78;37.95;;;;;;;;;;6263715;28;20053;-64
2022/03/29 05:40:10;;;;;;;87.60;38.08;;;;;;;;;;6262919;28;20179;-64
2022/03/29 05:43:11;;;;;;;75.40;35.97;;;;;;;;;;6264704;28;20048;-64
2022/03/29 05:49:31;;;;;;;70.55;31.33;;;;;;;;;;6265802;28;20049;-61
2022/03/29 05:52:31;;;;;;;74.82;35.35;;;;;;;;;;6266442;28;20135;-64
2022/03/29 05:55:32;;;;;;;69.15;30.92;;;;;;;;;;6268565;28;20048;-65
2022/03/29 05:58:33;;;;;;;66.35;29.98;;;;;;;;;;6266996;28;20162;-64
2022/03/29 06:01:34;;;;;;;64.78;28.60;;;;;;;;;;6265716;28;20049;-64
2022/03/29 06:04:35;;;;;;;67.68;30.17;;;;;;;;;;6268691;28;20053;-64
2022/03/29 06:07:36;;;;;;;67.82;30.92;;;;;;;;;;6269468;28;20196;-63
2022/03/29 06:10:37;;;;;;;68.43;30.85;;;;;;;;;;6269222;28;20114;-63
2022/03/29 06:13:37;;;;;;;72.07;31.17;;;;;;;;;;6268438;28;20041;-61
2022/03/29 06:16:38;;;;;;;62.50;28.42;;;;;;;;;;6270686;28;20506;-63
2022/03/29 06:19:38;;;;;;;66.22;29.00;;;;;;;;;;6269791;28;20049;-61
2022/03/29 06:22:43;;;;;;;68.10;29.20;;;;;;;;;;6267248;28;20095;-62
2022/03/29 06:25:46;;;;;;;64.25;28.27;;;;;;;;;;6268473;28;20064;-63
2022/03/29 06:28:46;;;;;;;59.85;27.77;;;;;;;;;;6267607;28;20090;-60
2022/03/29 06:31:47;;;;;;;57.25;27.27;;;;;;;;;;6267658;28;20041;-67
2022/03/29 06:34:47;;;;;;;60.75;29.95;;;;;;;;;;6267885;28;20041;-62
2022/03/29 06:37:53;;;;;;;57.90;25.73;;;;;;;;;;6268480;28;20408;-65
2022/03/29 06:40:54;;;;;;;53.78;24.83;;;;;;;;;;6265194;28;20052;-65
2022/03/29 06:43:55;;;;;;;58.67;26.40;;;;;;;;;;6264324;28;20045;-62
2022/03/29 06:46:57;;;;;;;60.55;26.73;;;;;;;;;;6266614;28;20052;-63
2022/03/29 06:49:57;;;;;;;57.40;26.60;;;;;;;;;;6267973;28;20130;-63
2022/03/29 06:52:59;;;;;;;55.92;26.63;;;;;;;;;;6265628;28;20041;-64
2022/03/29 06:56:00;;;;;;;55.78;25.63;;;;;;;;;;6266213;28;20076;-62
2022/03/29 06:59:00;;;;;;;58.42;26.90;;;;;;;;;;6263947;28;20201;-63
2022/03/29 07:02:01;;;;;;;56.05;26.20;;;;;;;;;;6261452;28;20053;-62
2022/03/29 07:05:03;;;;;;;56.80;26.35;;;;;;;;;;6261897;28;20065;-64
2022/03/29 07:08:10;;;;;;;63.85;28.65;;;;;;;;;;6265225;28;20045;-65
2022/03/29 07:11:17;;;;;;;61.22;28.58;;;;;;;;;;6262395;28;20144;-61
2022/03/29 07:14:17;;;;;;;58.05;26.05;;;;;;;;;;6259573;28;20052;-62
2022/03/29 07:17:19;;;;;;;56.60;26.85;;;;;;;;;;6261034;28;20080;-63
2022/03/29 07:20:21;;;;;;;53.90;25.63;;;;;;;;;;6261982;28;20055;-63
2022/03/29 07:23:21;;;;;;;48.50;24.38;;;;;;;;;;6266091;28;20477;-63
2022/03/29 07:26:22;;;;;;;51.80;24.73;;;;;;;;;;6260601;28;20045;-63
2022/03/29 07:29:23;;;;;;;55.05;25.95;;;;;;;;;;6262216;28;20040;-63
2022/03/29 07:32:23;;;;;;;52.03;24.33;;;;;;;;;;6261087;28;20537;-63
2022/03/29 07:35:26;;;;;;;45.47;22.48;;;;;;;;;;6257541;28;20053;-62
2022/03/29 07:38:27;;;;;;;45.30;20.95;;;;;;;;;;6263064;28;20045;-62
2022/03/29 07:41:28;;;;;;;47.28;21.85;;;;;;;;;;6258687;28;20072;-62
2022/03/29 07:44:29;;;;;;;48.70;22.07;;;;;;;;;;6259610;28;20065;-63
2022/03/29 07:47:29;;;;;;;44.28;21.67;;;;;;;;;;6262699;28;20106;-63
2022/03/29 07:50:33;;;;;;;52.58;22.42;;;;;;;;;;6258934;28;20052;-63
2022/03/29 07:53:33;;;;;;;46.25;21.83;;;;;;;;;;6261124;28;20044;-64
2022/03/29 07:56:34;;;;;;;53.40;23.98;;;;;;;;;;6265105;28;20487;-63
2022/03/29 07:59:37;;;;;;;54.08;22.58;;;;;;;;;;6267093;28;20583;-62
2022/03/29 08:02:37;;;;;;;49.33;22.27;;;;;;;;;;6265193;28;20036;-63
2022/03/29 08:05:42;;;;;;;44.47;21.20;;;;;;;;;;6265007;28;20136;-63
2022/03/29 08:08:43;;;;;;;42.78;20.33;;;;;;;;;;6267537;28;20057;-62
2022/03/29 08:11:44;;;;;;;38.17;19.48;;;;;;;;;;6267414;28;20479;-63
2022/03/29 08:14:44;;;;;;;41.28;19.40;;;;;;;;;;6265374;28;20044;-62
2022/03/29 08:17:45;;;;;;;41.72;19.88;;;;;;;;;;6267243;28;20044;-63
2022/03/29 08:20:47;;;;;;;43.42;17.33;;;;;;;;;;6265706;28;20403;-61
2022/03/29 08:23:47;;;;;;;42.97;18.38;;;;;;;;;;6265319;28;20072;-62
2022/03/29 08:26:51;;;;;;;37.25;17.17;;;;;;;;;;6267897;28;20059;-62
2022/03/29 08:29:52;;;;;;;41.72;18.40;;;;;;;;;;6266925;28;20041;-61
2022/03/29 08:32:54;;;;;;;42.50;18.93;;;;;;;;;;6265650;28;20805;-61
2022/03/29 08:35:54;;;;;;;38.72;17.80;;;;;;;;;;6265917;28;20593;-62
2022/03/29 08:38:55;;;;;;;38.13;17.80;;;;;;;;;;6266497;28;20049;-62
2022/03/29 08:42:05;;;;;;;40.50;17.25;;;;;;;;;;6263577;28;20152;-61
2022/03/29 08:45:10;;;;;;;38.85;17.05;;;;;;;;;;6260553;28;20056;-64
2022/03/29 08:48:11;;;;;;;40.97;17.48;;;;;;;;;;6260186;28;20398;-63
2022/03/29 08:51:12;;;;;;;41.60;18.83;;;;;;;;;;6261859;28;20135;-63
2022/03/29 08:54:13;;;;;;;42.83;19.13;;;;;;;;;;6259829;28;20069;-63
2022/03/29 08:57:14;;;;;;;47.63;19.47;;;;;;;;;;6259988;28;20065;-63
2022/03/29 09:00:16;;;;;;;40.55;18.88;;;;;;;;;;6257014;28;20051;-62
2022/03/29 09:03:17;;;;;;;41.63;19.02;;;;;;;;;;6261888;28;20073;-64
2022/03/29 09:06:18;;;;;;;42.37;18.80;;;;;;;;;;6260711;28;20045;-63
2022/03/29 09:09:29;;;;;;;38.67;18.65;;;;;;;;;;6266498;28;20103;-64
2022/03/29 09:12:33;;;;;;;36.23;16.33;;;;;;;;;;6266002;28;20506;-64
2022/03/29 09:15:36;;;;;;;42.35;17.15;;;;;;;;;;6256579;28;20072;-63
2022/03/29 09:18:53;;;;;;;35.03;14.95;;;;;;;;;;6259258;28;20048;-63
2022/03/29 09:21:55;;;;;;;32.15;15.00;;;;;;;;;;6259290;28;20048;-63
2022/03/29 09:24:56;;;;;;;30.98;13.15;;;;;;;;;;6256047;28;20126;-64
2022/03/29 09:28:03;;;;;;;31.27;13.90;;;;;;;;;;6259779;28;20045;-63
2022/03/29 09:31:22;;;;;;;30.70;13.73;;;;;;;;;;6247246;28;20403;-64
2022/03/29 09:34:23;;;;;;;28.52;12.98;;;;;;;;;;6260798;28;20459;-62
2022/03/29 09:37:33;;;;;;;29.52;13.88;;;;;;;;;;6248808;28;20106;-62
2022/03/29 09:40:38;;;;;;;32.10;14.68;;;;;;;;;;6265318;28;20048;-62
2022/03/29 09:43:38;;;;;;;29.77;14.05;;;;;;;;;;6258707;28;20108;-62
2022/03/29 09:46:59;;;;;;;33.05;15.30;;;;;;;;;;6255810;28;22324;-62
2022/03/29 09:50:06;;;;;;;35.08;15.07;;;;;;;;;;6254190;28;20041;-62
2022/03/29 09:53:06;;;;;;;30.77;15.27;;;;;;;;;;6255571;28;20072;-61
2022/03/29 09:56:09;;;;;;;33.83;15.38;;;;;;;;;;6256279;28;20049;-59
2022/03/29 09:59:14;;;;;;;32.15;15.43;;;;;;;;;;6257508;28;20762;-64
2022/03/29 10:02:15;;;;;;;31.35;14.88;;;;;;;;;;6257675;28;20053;-62
2022/03/29 10:05:19;;;;;;;35.63;15.88;;;;;;;;;;6259890;28;20806;-64
2022/03/29 10:11:46;;;;;;;34.75;16.35;;;;;;;;;;6255336;28;20045;-64
2022/03/29 10:14:47;;;;;;;35.70;16.27;;;;;;;;;;6255231;28;20098;-61
2022/03/29 10:17:48;;;;;;;32.57;15.43;;;;;;;;;;6259525;28;20080;-62
2022/03/29 10:20:49;;;;;;;39.13;17.30;;;;;;;;;;6258564;28;20057;-64
2022/03/29 10:23:50;;;;;;;36.08;16.33;;;;;;;;;;6262998;28;20407;-63
2022/03/29 10:26:52;;;;;;;34.53;16.65;;;;;;;;;;6263932;28;20168;-63
2022/03/29 10:29:53;;;;;;;34.72;16.52;;;;;;;;;;6265517;28;20037;-63
2022/03/29 10:32:54;;;;;;;40.30;17.30;;;;;;;;;;6263187;28;20045;-67
2022/03/29 10:36:14;;;;;;;36.25;16.60;;;;;;;;;;6262617;28;20114;-65
2022/03/29 10:39:20;;;;;;;35.13;16.85;;;;;;;;;;6263689;28;20053;-64
2022/03/29 10:42:24;;;;;;;40.55;18.38;;;;;;;;;;6260288;28;20139;-63
2022/03/29 10:45:27;;;;;;;38.38;17.42;;;;;;;;;;6262332;28;20400;-63
2022/03/29 10:48:27;;;;;;;34.45;16.95;;;;;;;;;;6266085;28;20091;-64
2022/03/29 10:51:28;;;;;;;35.47;17.17;;;;;;;;;;6267272;28;20045;-63
2022/03/29 10:54:42;;;;;;;37.45;17.13;;;;;;;;;;6265243;28;20412;-62
2022/03/29 10:58:13;;;;;;;36.10;17.33;;;;;;;;;;6262049;28;20518;-62
2022/03/29 11:01:15;;;;;;;33.63;16.20;;;;;;;;;;6257502;28;20057;-62
2022/03/29 11:04:17;;;;;;;;;;;;;;;;;;6258479;28;20049;-63
2022/03/29 11:07:18;;;;;;;37.72;16.55;;;;;;;;;;6265944;28;19924;-63
2022/03/29 11:10:23;;;;;;;36.50;17.67;;;;;;;;;;6265631;28;20140;-63
2022/03/29 11:13:30;;;;;;;41.60;17.88;;;;;;;;;;6264704;28;20103;-63
2022/03/29 11:16:31;;;;;;;40.40;18.20;;;;;;;;;;6263303;28;20037;-64
2022/03/29 11:19:48;;;;;;;34.72;17.52;;;;;;;;;;6264447;28;20045;-64
2022/03/29 11:22:49;;;;;;;33.22;16.73;;;;;;;;;;6262903;28;20053;-64
2022/03/29 11:25:52;;;;;;;37.33;17.13;;;;;;;;;;6262534;28;20053;-64
2022/03/29 11:28:55;;;;;;;41.00;17.85;;;;;;;;;;6263595;28;20045;-64
2022/03/29 11:31:56;;;;;;;37.75;16.65;;;;;;;;;;6263882;28;20471;-64
2022/03/29 11:34:58;;;;;;;36.40;16.50;;;;;;;;;;6263834;28;20440;-64
2022/03/29 11:38:19;;;;;;;39.58;17.27;;;;;;;;;;6261123;28;20057;-63
2022/03/29 11:41:31;;;;;;;41.75;18.33;;;;;;;;;;6259168;28;20122;-62
2022/03/29 11:44:31;;;;;;;35.38;15.98;;;;;;;;;;6263285;28;20106;-64
2022/03/29 11:47:32;;;;;;;36.00;17.85;;;;;;;;;;6261740;28;20488;-64
2022/03/29 11:50:35;;;;;;;39.90;18.90;;;;;;;;;;6263382;28;20437;-64
2022/03/29 11:53:37;;;;;;;34.95;18.08;;;;;;;;;;6265484;28;20048;-63
2022/03/29 11:56:40;;;;;;;35.08;16.55;;;;;;;;;;6266292;28;20045;-64
2022/03/29 11:59:42;;;;;;;38.28;17.00;;;;;;;;;;6266361;28;20048;-64
2022/03/29 12:02:43;;;;;;;35.30;16.98;;;;;;;;;;6268495;28;20061;-64
2022/03/29 12:05:44;;;;;;;33.70;16.10;;;;;;;;;;6267297;28;20564;-65
2022/03/29 12:08:56;;;;;;;34.00;16.27;;;;;;;;;;6261436;28;20049;-64
2022/03/29 12:11:59;;;;;;;33.92;15.80;;;;;;;;;;6263818;28;20087;-64
2022/03/29 12:15:03;;;;;;;33.47;15.95;;;;;;;;;;6260161;28;20069;-64
2022/03/29 12:21:51;;;;;;;37.50;16.58;;;;;;;;;;6261989;28;20099;-64
2022/03/29 12:24:55;;;;;;;34.00;16.17;;;;;;;;;;6264794;28;20049;-62
2022/03/29 12:27:55;;;;;;;36.47;15.32;;;;;;;;;;6263363;28;20180;-63
2022/03/29 12:30:57;;;;;;;32.83;14.23;;;;;;;;;;6259863;28;20053;-64
2022/03/29 12:33:57;;;;;;;35.63;16.93;;;;;;;;;;6261535;28;20052;-64
2022/03/29 12:37:04;;;;;;;32.25;15.57;;;;;;;;;;6266313;28;20565;-64
2022/03/29 12:40:10;;;;;;;35.67;15.85;;;;;;;;;;6263626;28;20455;-65
2022/03/29 12:43:11;;;;;;;31.40;14.98;;;;;;;;;;6265088;28;20503;-63
2022/03/29 12:46:12;;;;;;;36.78;16.35;;;;;;;;;;6266197;28;20049;-64
2022/03/29 12:49:13;;;;;;;32.10;15.00;;;;;;;;;;6265886;28;20432;-64
2022/03/29 12:52:14;;;;;;;38.03;16.58;;;;;;;;;;6264054;28;20056;-63
2022/03/29 12:55:21;;;;;;;37.58;16.98;;;;;;;;;;6265787;28;20492;-62
2022/03/29 12:58:37;;;;;;;39.42;17.90;;;;;;;;;;6263743;28;20443;-63
2022/03/29 13:01:37;;;;;;;37.45;18.13;;;;;;;;;;6263773;28;20074;-63
2022/03/29 13:04:46;;;;;;;39.03;17.80;;;;;;;;;;6263319;28;20479;-63
2022/03/29 13:07:57;;;;;;;39.97;17.23;;;;;;;;;;6266738;28;20045;-62
2022/03/29 13:10:58;;;;;;;37.22;17.05;;;;;;;;;;6265078;28;20041;-62
2022/03/29 13:14:04;;;;;;;36.20;16.67;;;;;;;;;;6265120;28;20064;-65
2022/03/29 13:17:04;;;;;;;37.42;16.80;;;;;;;;;;6266754;28;20057;-63
2022/03/29 13:20:05;;;;;;;38.28;17.42;;;;;;;;;;6261371;28;20532;-64
2022/03/29 13:23:06;;;;;;;38.90;17.30;;;;;;;;;;6259765;28;20122;-61
2022/03/29 13:26:09;;;;;;;44.20;18.95;;;;;;;;;;6255524;28;20168;-64
2022/03/29 13:29:12;;;;;;;42.15;19.30;;;;;;;;;;6229712;28;20126;-61
2022/03/29 13:32:14;;;;;;;36.80;16.73;;;;;;;;;;6243726;28;20265;-63
2022/03/29 13:35:15;;;;;;;36.67;17.00;;;;;;;;;;6236752;28;20080;-62
2022/03/29 13:38:16;;;;;;;34.83;16.55;;;;;;;;;;6236462;28;20802;-60
2022/03/29 13:41:18;;;;;;;47.05;19.30;;;;;;;;;;6237893;28;20044;-61
2022/03/29 13:44:18;;;;;;;36.65;18.05;;;;;;;;;;6238279;28;20064;-61
2022/03/29 13:47:19;;;;;;;36.67;17.67;;;;;;;;;;6240887;28;20049;-61
2022/03/29 13:50:20;;;;;;;38.75;17.63;;;;;;;;;;6240392;28;20508;-60
2022/03/29 13:53:21;;;;;;;36.85;17.83;;;;;;;;;;6239491;28;20472;-60
2022/03/29 13:56:23;;;;;;;35.83;16.88;;;;;;;;;;6235932;28;20049;-61
2022/03/29 13:59:26;;;;;;;38.30;18.00;;;;;;;;;;6239473;28;20547;-60
2022/03/29 14:02:26;;;;;;;42.10;17.90;;;;;;;;;;6240170;28;20157;-61
2022/03/29 14:05:28;;;;;;;38.95;17.95;;;;;;;;;;6241641;28;20041;-62
2022/03/29 14:08:30;;;;;;;36.97;17.20;;;;;;;;;;6243156;28;20044;-61
2022/03/29 14:11:31;;;;;;;36.05;18.10;;;;;;;;;;6244458;28;20401;-62
2022/03/29 14:14:31;;;;;;;35.38;17.70;;;;;;;;;;6238439;28;20130;-61
2022/03/29 14:17:32;;;;;;;35.78;17.35;;;;;;;;;;6240134;28;20049;-62
2022/03/29 14:20:38;;;;;;;45.30;19.10;;;;;;;;;;6239985;28;20043;-62
2022/03/29 14:23:39;;;;;;;36.85;18.58;;;;;;;;;;6242280;28;20148;-61
2022/03/29 14:26:40;;;;;;;39.78;18.08;;;;;;;;;;6246159;28;20041;-62
2022/03/29 14:29:41;;;;;;;41.40;18.70;;;;;;;;;;6244318;28;20058;-61
2022/03/29 14:32:41;;;;;;;37.78;17.48;;;;;;;;;;6247534;28;20092;-62
2022/03/29 14:35:46;;;;;;;34.92;17.95;;;;;;;;;;6248784;28;20980;-59
2022/03/29 14:38:47;;;;;;;39.65;18.30;;;;;;;;;;6253817;28;20112;-60
2022/03/29 14:41:48;;;;;;;37.42;16.60;;;;;;;;;;6253568;28;20056;-59
2022/03/29 14:44:49;;;;;;;37.95;16.65;;;;;;;;;;6246553;28;21495;-59
2022/03/29 14:47:50;;;;;;;38.95;17.20;;;;;;;;;;6246009;28;20057;-60
2022/03/29 14:50:50;;;;;;;38.53;17.10;;;;;;;;;;6252456;28;20059;-59
2022/03/29 14:53:51;;;;;;;40.22;18.88;;;;;;;;;;6247442;28;20059;-58
2022/03/29 14:56:53;;;;;;;36.75;18.30;;;;;;;;;;6252609;28;20132;-59
2022/03/29 14:59:55;;;;;;;38.78;17.38;;;;;;;;;;6241526;28;20187;-60
2022/03/29 15:02:56;;;;;;;40.10;18.15;;;;;;;;;;6241158;28;20050;-59
2022/03/29 15:05:58;;;;;;;46.53;19.17;;;;;;;;;;6241031;28;20068;-59
2022/03/29 15:08:59;;;;;;;42.97;18.58;;;;;;;;;;6245250;28;20053;-59
2022/03/29 15:12:00;;;;;;;41.22;19.05;;;;;;;;;;6251459;28;20128;-60
2022/03/29 15:15:02;;;;;;;38.90;18.15;;;;;;;;;;6246565;28;20060;-62
2022/03/29 15:18:03;;;;;;;36.35;16.88;;;;;;;;;;6250209;28;20412;-60
2022/03/29 15:21:04;;;;;;;40.05;18.23;;;;;;;;;;6244480;28;20132;-61
2022/03/29 15:24:04;;;;;;;36.38;17.00;;;;;;;;;;6242362;28;20098;-59
2022/03/29 15:27:05;;;;;;;37.10;16.55;;;;;;;;;;6245884;28;20057;-60
2022/03/29 15:30:09;;;;;;;39.33;17.35;;;;;;;;;;6246351;28;20057;-62
2022/03/29 15:33:11;;;;;;;33.88;16.80;;;;;;;;;;6244336;28;20061;-60
2022/03/29 15:36:12;;;;;;;39.33;17.35;;;;;;;;;;6244444;28;20083;-60
2022/03/29 15:39:12;;;;;;;36.47;17.02;;;;;;;;;;6247274;28;20526;-60
2022/03/29 15:42:15;;;;;;;43.17;19.10;;;;;;;;;;6245991;28;20121;-62
2022/03/29 15:45:15;;;;;;;47.60;21.63;;;;;;;;;;6247949;28;20056;-60
2022/03/29 15:48:17;;;;;;;43.50;20.15;;;;;;;;;;6250157;28;20660;-60
2022/03/29 15:51:22;;;;;;;50.17;21.35;;;;;;;;;;6251852;28;20049;-60
2022/03/29 15:54:23;;;;;;;45.63;20.17;;;;;;;;;;6243183;28;20077;-61
2022/03/29 15:57:26;;;;;;;39.13;18.42;;;;;;;;;;6244814;28;20045;-62
2022/03/29 16:00:27;;;;;;;51.13;20.33;;;;;;;;;;6250122;28;20079;-62
2022/03/29 16:03:27;;;;;;;57.40;23.98;;;;;;;;;;6251443;28;20400;-62
2022/03/29 16:06:28;;;;;;;53.55;21.95;;;;;;;;;;6246458;28;20045;-62
2022/03/29 16:09:31;;;;;;;46.15;20.55;;;;;;;;;;6249735;28;20098;-63
2022/03/29 16:12:35;;;;;;;45.05;18.80;;;;;;;;;;6252846;28;20076;-61
2022/03/29 16:15:36;;;;;;;41.83;18.77;;;;;;;;;;6249618;28;20512;-61
2022/03/29 16:18:36;;;;;;;43.05;19.70;;;;;;;;;;6246322;28;20046;-62
2022/03/29 16:21:38;;;;;;;39.85;17.58;;;;;;;;;;6248951;28;20053;-61
2022/03/29 16:24:39;;;;;;;42.88;17.90;;;;;;;;;;6246906;28;20971;-61
2022/03/29 16:27:41;;;;;;;40.78;18.33;;;;;;;;;;6249252;28;20046;-61
2022/03/29 16:30:42;;;;;;;44.40;20.88;;;;;;;;;;6251282;28;20091;-62
2022/03/29 16:33:42;;;;;;;44.40;18.02;;;;;;;;;;6248392;28;20049;-61
2022/03/29 16:36:45;;;;;;;41.55;17.83;;;;;;;;;;6247461;28;20052;-61
2022/03/29 16:39:46;;;;;;;43.22;18.77;;;;;;;;;;6244824;28;20689;-62
2022/03/29 16:42:47;;;;;;;45.75;19.65;;;;;;;;;;6246885;28;20080;-63
2022/03/29 16:45:47;;;;;;;51.65;20.35;;;;;;;;;;6247379;28;20619;-61
2022/03/29 16:48:48;;;;;;;50.40;20.20;;;;;;;;;;6246328;28;20081;-64
2022/03/29 16:51:50;;;;;;;45.60;19.45;;;;;;;;;;6240983;28;21033;-61
2022/03/29 16:54:50;;;;;;;51.72;21.27;;;;;;;;;;6242596;28;20481;-63
2022/03/29 16:57:51;;;;;;;48.65;19.30;;;;;;;;;;6239340;28;20052;-60
2022/03/29 17:00:52;;;;;;;48.28;20.23;;;;;;;;;;6254901;28;20501;-61
2022/03/29 17:03:53;;;;;;;58.10;22.77;;;;;;;;;;6241536;28;20123;-61
2022/03/29 17:06:54;;;;;;;50.60;23.17;;;;;;;;;;6242974;28;20796;-62
2022/03/29 17:09:54;;;;;;;51.47;21.88;;;;;;;;;;6240474;28;20306;-60
2022/03/29 17:12:55;;;;;;;47.95;19.60;;;;;;;;;;6242326;28;20390;-62
2022/03/29 17:15:57;;;;;;;45.22;20.60;;;;;;;;;;6240594;28;20049;-64
2022/03/29 17:18:58;;;;;;;49.38;22.83;;;;;;;;;;6240636;28;20056;-60
2022/03/29 17:21:59;;;;;;;47.05;20.05;;;;;;;;;;6240213;28;20049;-59
2022/03/29 17:25:01;;;;;;;46.60;19.60;;;;;;;;;;6240480;28;20051;-61
2022/03/29 17:28:02;;;;;;;74.18;29.00;;;;;;;;;;6243023;28;20456;-70
2022/03/29 17:31:03;;;;;;;50.72;22.05;;;;;;;;;;6243037;28;20045;-58
2022/03/29 17:34:06;;;;;;;43.75;19.85;;;;;;;;;;6243192;28;20080;-61
2022/03/29 17:37:07;;;;;;;41.85;18.38;;;;;;;;;;6241702;28;20057;-61
2022/03/29 17:40:08;;;;;;;47.95;22.05;;;;;;;;;;6252546;28;20223;-61
2022/03/29 17:43:09;;;;;;;49.00;20.48;;;;;;;;;;6256672;28;20578;-61
2022/03/29 17:46:10;;;;;;;47.78;22.20;;;;;;;;;;6254610;28;20103;-61
2022/03/29 17:49:11;;;;;;;45.97;19.33;;;;;;;;;;6246606;28;20096;-61
2022/03/29 17:52:12;;;;;;;49.08;20.45;;;;;;;;;;6250902;28;20057;-63
2022/03/29 17:55:13;;;;;;;49.67;23.92;;;;;;;;;;6250006;28;20080;-62
2022/03/29 17:58:14;;;;;;;61.83;25.80;;;;;;;;;;6252037;28;20065;-63